Aeroporto :
LOGIN :

Iscrizione | Disclaimer

   EN    FR    IT 

 










Sommario :    VFR   VFR Marginale   IFR   IFR Intensivo   IFR Molto Intensivo
Visibilità : 
Base nubi : 
>= 8 km
>= 3000ft
5 / 8 km
1000 / 3000 ft
1500m / 5 km
500 / 1000 ft
800 / 1500m
200 / 500 ft
< 800m
< 200 ft
Simboli :   Temporali  Nebbia  Neve Forte  Precipitazioni Forti  Vento > 20 kt
SIGMETs :   Varie  Temporali  Ghiacco  Turbolenza  Onda orograficha  Ceneri Vulcaniche






- Altitudine del aeroporto : 238 ft
- Codice IATA : UAB


LTAG - Incirlik AB

ULTIMO METAR :
  • 290650Z 17016KT 9999 BKN035 22/13 Q1013 NOSIG

METARs OBSOLETI :
  • 290620Z 17009KT 9999 SCT035 23/12 Q1012 NOSIG
  • 290550Z 18011KT 9999 SCT035 22/13 Q1012 NOSIG
  • 290520Z 19006KT 9999 FEW030 22/14 Q1012 NOSIG
  • 290450Z 18009KT 9999 FEW030 22/14 Q1012 NOSIG
  • 290420Z 19004KT 9999 FEW030 21/15 Q1012 NOSIG

TAF TAF LTAG
Valido dal 29 a 06 ore il 30 a 06 ore UTC


290440Z 2906/3006 20015 9999 SCT030
TEMPO 2911/2914 FEW025CB BKN030
BECMG 2916/2919 VRB02KT
BECMG 2920/2923 BKN025



MetMap, La meteo Aeronautica in un colpo d'occhio ! - Copyright ORBIFLY Dicembre 2007 - Disclaimer

ORBIFLY MET'MAP TEAM :

Programmazione e sviluppo : Alexandra Zaïnal
Concezione : Baudouin d'Aumeries
Aiuto per la programmazione : Marc-Olivier Méhu
Supporto tecnico e logistico : Manuel Goepfert
Aiuto per la traduzione : Arnaldo La Scala

Contatto : metmap@orbifly.com




FONTI E CREDITI :

   NOAA